Time;durP1;ratioP1;P1;durP2;ratioP2;P2;SDS_P1;SDS_P2;PMS_P1;PMS_P2;Temp;Humidity;BMP_temperature;BMP_pressure;BME280_temperature;BME280_humidity;BME280_pressure;Samples;Min_cycle;Max_cycle;Signal;HPM_P1;HPM_P2
2023/04/03 00:00:53;;;;;;;2.83;2.60;;;3.40;68.70;;;3.32;60.28;98761.66;5064867;28;20961;-73
2023/04/03 00:03:21;;;;;;;2.67;2.47;;;3.30;68.60;;;3.16;60.50;98710.75;5063245;28;20525;-74
2023/04/03 00:05:48;;;;;;;2.20;2.10;;;3.40;68.80;;;2.94;60.67;98673.63;5071936;28;20542;-75
2023/04/03 00:08:15;;;;;;;2.93;2.63;;;3.40;68.90;;;3.49;60.01;98749.31;5070966;28;20471;-75
2023/04/03 00:10:43;;;;;;;2.60;2.40;;;3.40;68.80;;;3.54;60.40;98762.19;5071804;28;20445;-74
2023/04/03 00:13:13;;;;;;;2.20;2.00;;;3.40;69.00;;;3.16;60.76;98764.16;5061088;28;20463;-76
2023/04/03 00:15:41;;;;;;;3.03;2.40;;;3.30;68.90;;;3.35;60.70;98753.34;5069414;28;20495;-75
2023/04/03 00:18:09;;;;;;;6.43;2.60;;;3.20;69.20;;;3.39;60.33;98759.22;5082054;28;20440;-75
2023/04/03 00:20:37;;;;;;;3.10;2.80;;;3.20;69.20;;;3.18;61.31;98759.50;5073459;28;20955;-75
2023/04/03 00:23:04;;;;;;;2.87;2.60;;;3.10;69.70;;;3.17;61.65;98763.16;5065883;28;20456;-73
2023/04/03 00:25:31;;;;;;;2.70;2.20;;;3.10;70.10;;;2.90;61.53;98754.16;5062848;28;20469;-72
2023/04/03 00:27:59;;;;;;;5.63;2.57;;;3.00;70.20;;;3.19;61.42;98764.69;5067324;28;20520;-74
2023/04/03 00:30:28;;;;;;;3.10;2.57;;;3.10;70.10;;;2.93;62.31;98762.72;5071465;28;20543;-74
2023/04/03 00:32:55;;;;;;;4.13;2.60;;;3.00;70.10;;;3.21;61.12;98764.53;5069504;28;20880;-73
2023/04/03 00:35:24;;;;;;;3.57;3.27;;;3.10;70.10;;;3.08;61.32;98772.91;5065277;28;20522;-73
2023/04/03 00:37:53;;;;;;;3.20;2.90;;;3.10;70.00;;;3.21;60.94;98762.72;5072329;28;20470;-73
2023/04/03 00:40:23;;;;;;;3.30;2.97;;;3.10;70.00;;;3.23;61.02;98765.22;5074946;28;20443;-74
2023/04/03 00:42:56;;;;;;;4.00;2.93;;;3.20;69.70;;;3.30;61.24;98766.31;5071760;28;20459;-74
2023/04/03 00:45:34;;;;;;;3.60;3.13;;;3.10;69.90;;;3.11;61.46;98761.91;5093586;28;20566;-73
2023/04/03 00:48:05;;;;;;;3.33;2.70;;;3.10;70.00;;;3.22;61.61;98766.22;5088117;28;20501;-73
2023/04/03 00:50:36;;;;;;;4.80;2.60;;;3.00;70.30;;;3.11;61.52;98761.91;5090100;28;20455;-74
2023/04/03 00:53:04;;;;;;;2.57;2.30;;;3.10;70.20;;;3.19;61.48;98767.38;5087665;28;20871;-73
2023/04/03 00:55:32;;;;;;;3.77;2.40;;;3.10;70.00;;;3.13;61.18;98765.28;5074350;28;20441;-74
2023/04/03 00:58:01;;;;;;;2.60;2.33;;;3.00;70.20;;;3.20;61.27;98760.19;5078307;28;20532;-74
2023/04/03 01:00:30;;;;;;;2.73;2.50;;;3.00;70.00;;;2.92;62.11;98757.50;5072702;28;20495;-73
2023/04/03 01:02:57;;;;;;;3.00;2.70;;;2.90;70.20;;;3.06;61.24;98759.69;5067436;28;20585;-74
2023/04/03 01:05:24;;;;;;;2.80;2.60;;;3.00;70.20;;;3.00;61.10;98757.63;5066051;28;20460;-75
2023/04/03 01:07:53;;;;;;;2.90;2.70;;;2.90;69.90;;;2.89;61.78;98763.16;5060502;28;20453;-74
2023/04/03 01:10:21;;;;;;;3.30;3.00;;;2.90;69.80;;;2.25;61.87;98676.63;5070870;28;20761;-74
2023/04/03 01:12:51;;;;;;;3.00;2.70;;;2.80;70.20;;;3.04;60.88;98768.88;5065063;28;21140;-74
2023/04/03 01:15:23;;;;;;;3.40;2.43;;;2.80;70.10;;;3.09;61.00;98770.06;5063296;28;21711;-75
2023/04/03 01:17:56;;;;;;;3.23;2.70;;;2.90;69.70;;;2.94;61.15;98750.19;5066207;28;20471;-73
2023/04/03 01:21:34;;;;;;;3.20;2.90;;;2.90;69.70;;;2.86;61.24;98764.28;5061464;28;20475;-76
2023/04/03 01:24:15;;;;;;;2.93;2.50;;;2.80;69.90;;;3.12;60.62;98758.25;5017607;28;20460;-75
2023/04/03 01:26:43;;;;;;;2.63;2.43;;;2.90;70.00;;;2.98;61.32;98746.25;5074608;28;20553;-74
2023/04/03 01:29:11;;;;;;;3.07;2.77;;;3.00;69.90;;;2.82;62.41;98766.44;5065706;28;20471;-74
2023/04/03 01:31:54;;;;;;;3.77;3.00;;;2.80;70.20;;;2.81;61.49;98759.41;5070083;28;20454;-74
2023/04/03 01:34:22;;;;;;;3.53;3.00;;;2.70;70.10;;;2.96;61.08;98774.94;5058459;28;20460;-75
2023/04/03 01:36:50;;;;;;;2.90;2.27;;;2.80;70.00;;;2.82;61.26;98758.41;5063301;28;20554;-74
2023/04/03 01:39:19;;;;;;;3.60;2.87;;;2.70;69.90;;;2.89;60.95;98755.16;5061729;28;20455;-74
2023/04/03 01:41:47;;;;;;;3.30;2.63;;;2.70;69.90;;;2.78;61.48;98762.34;5063031;28;20460;-77
2023/04/03 01:44:14;;;;;;;2.93;2.57;;;2.50;70.00;;;2.86;60.77;98769.63;5063075;28;20525;-73
2023/04/03 01:46:42;;;;;;;3.03;2.83;;;2.50;70.00;;;2.87;60.69;98759.81;5079014;28;20444;-74
2023/04/03 01:49:11;;;;;;;2.70;2.40;;;2.50;69.80;;;2.76;60.93;98766.16;5062411;28;20541;-72
2023/04/03 01:51:38;;;;;;;3.20;2.90;;;2.50;70.00;;;2.64;61.83;98766.34;5064135;28;20546;-73
2023/04/03 01:54:05;;;;;;;3.00;2.03;;;2.40;70.00;;;2.36;61.74;98762.78;5068123;28;20963;-73
2023/04/03 01:56:32;;;;;;;3.53;2.37;;;2.30;70.00;;;2.23;63.13;98755.94;5060480;28;20457;-73
2023/04/03 01:59:00;;;;;;;3.50;2.90;;;2.20;70.40;;;2.08;63.30;98768.03;5051848;28;20456;-72
2023/04/03 02:01:27;;;;;;;2.57;2.40;;;2.10;70.50;;;2.05;63.41;98763.00;5066719;28;20976;-73
2023/04/03 02:03:54;;;;;;;3.10;2.80;;;2.10;70.90;;;2.31;62.72;98767.69;5074887;28;20456;-74
2023/04/03 02:06:23;;;;;;;3.17;2.70;;;2.10;70.80;;;2.18;63.04;98758.19;5070809;28;20513;-74
2023/04/03 02:08:50;;;;;;;2.47;2.27;;;2.10;71.10;;;2.21;63.18;98757.91;5068544;28;20457;-73
2023/04/03 02:11:17;;;;;;;2.33;2.20;;;2.00;71.20;;;1.91;64.12;98758.94;5058185;28;20476;-74
2023/04/03 02:13:45;;;;;;;2.67;2.43;;;1.90;71.50;;;1.60;63.85;98697.81;5070075;28;20452;-73
2023/04/03 02:16:13;;;;;;;4.97;3.33;;;2.00;71.50;;;2.08;63.97;98765.38;5062516;28;20501;-74
2023/04/03 02:18:40;;;;;;;2.63;2.40;;;1.90;71.50;;;1.93;63.92;98763.16;5076500;28;20441;-73
2023/04/03 02:21:08;;;;;;;3.70;3.33;;;1.80;71.60;;;1.71;65.14;98766.94;5067980;28;20541;-73
2023/04/03 02:23:36;;;;;;;3.40;2.77;;;1.70;72.20;;;1.68;64.91;98773.38;5071666;28;20520;-74
2023/04/03 02:26:08;;;;;;;4.13;2.57;;;1.70;72.40;;;1.79;65.35;98776.91;5061381;28;20467;-74
2023/04/03 02:28:36;;;;;;;2.90;2.60;;;1.60;72.90;;;1.77;65.02;98765.53;5069134;28;20557;-73
2023/04/03 02:31:04;;;;;;;3.07;2.40;;;1.70;73.00;;;1.52;66.16;98765.09;5066585;28;20482;-73
2023/04/03 02:33:32;;;;;;;2.50;2.30;;;1.60;73.10;;;1.80;65.28;98767.91;5066176;28;20910;-73
2023/04/03 02:36:00;;;;;;;3.30;3.00;;;1.60;73.40;;;1.74;65.09;98740.00;5060564;28;20510;-72
2023/04/03 02:38:27;;;;;;;3.93;2.87;;;1.80;73.20;;;1.87;65.01;98773.53;5065699;28;20495;-74
2023/04/03 02:41:01;;;;;;;3.10;2.80;;;1.80;73.10;;;1.86;64.99;98772.66;5065219;28;20441;-75
2023/04/03 02:43:28;;;;;;;5.20;2.60;;;1.80;73.20;;;1.76;65.64;98777.19;5073003;28;20546;-74
2023/04/03 02:45:56;;;;;;;3.10;2.40;;;1.70;73.40;;;1.82;65.89;98772.13;5060287;28;20556;-75
2023/04/03 02:48:23;;;;;;;6.63;2.73;;;1.70;73.40;;;1.68;66.03;98770.72;5072128;28;20532;-75
2023/04/03 02:50:50;;;;;;;2.90;2.40;;;1.60;73.60;;;1.67;66.29;98770.88;5062129;28;20838;-75
2023/04/03 02:53:18;;;;;;;3.90;2.97;;;1.60;73.90;;;0.90;66.55;98650.84;5066466;28;20456;-72
2023/04/03 02:55:47;;;;;;;2.57;2.37;;;1.60;74.00;;;1.49;66.66;98760.88;5058895;28;20534;-72
2023/04/03 02:58:17;;;;;;;6.77;2.70;;;1.50;74.30;;;1.49;66.87;98750.22;5067784;28;20800;-73
2023/04/03 03:00:44;;;;;;;3.63;2.50;;;1.40;74.40;;;1.45;67.59;98769.31;5069570;28;20506;-74
2023/04/03 03:03:13;;;;;;;3.03;2.73;;;1.40;74.70;;;1.02;68.48;98745.56;5071467;28;20462;-74
2023/04/03 03:05:40;;;;;;;3.03;2.40;;;1.20;75.30;;;1.20;69.15;98771.50;5069832;28;20516;-75
2023/04/03 03:08:07;;;;;;;4.20;3.13;;;1.10;76.00;;;1.27;68.50;98751.31;5070048;28;20952;-73
2023/04/03 03:10:35;;;;;;;5.70;3.27;;;1.20;76.70;;;1.24;68.65;98752.47;5062484;28;20501;-74
2023/04/03 03:13:02;;;;;;;4.80;3.30;;;1.20;76.80;;;1.42;68.98;98775.75;5081882;28;20496;-75
2023/04/03 03:15:31;;;;;;;4.60;3.57;;;1.30;76.90;;;1.46;68.87;98776.31;5070081;28;20443;-72
2023/04/03 03:17:58;;;;;;;3.43;3.03;;;1.30;77.00;;;1.37;68.92;98767.34;5070795;28;20503;-73
2023/04/03 03:20:26;;;;;;;2.70;2.37;;;1.20;77.00;;;1.37;69.14;98757.50;5068461;28;21065;-73
2023/04/03 03:22:53;;;;;;;4.17;3.00;;;1.30;77.60;;;1.28;69.92;98763.66;5076269;28;20562;-73
2023/04/03 03:25:22;;;;;;;3.77;3.30;;;1.20;77.50;;;1.29;69.40;98749.41;5050689;28;20544;-72
2023/04/03 03:27:49;;;;;;;4.07;3.67;;;1.30;78.30;;;1.31;69.26;98757.22;5057000;28;20452;-75
2023/04/03 03:30:17;;;;;;;3.43;3.13;;;1.30;77.80;;;1.33;70.42;98766.78;5070768;28;20476;-75
2023/04/03 03:32:46;;;;;;;4.03;2.80;;;1.20;78.40;;;1.33;70.42;98769.44;5072965;28;20467;-73
2023/04/03 03:35:14;;;;;;;3.63;3.33;;;1.10;79.20;;;1.30;70.85;98767.06;5078321;28;20523;-74
2023/04/03 03:37:41;;;;;;;4.33;3.60;;;1.20;80.30;;;1.53;70.10;98764.97;5087581;28;20497;-74
2023/04/03 03:40:12;;;;;;;4.43;3.33;;;1.40;79.60;;;1.51;70.36;98769.56;5107787;28;20451;-72
2023/04/03 03:42:40;;;;;;;4.97;3.20;;;1.50;79.20;;;1.43;70.87;98750.81;5082233;28;20852;-72
2023/04/03 03:45:09;;;;;;;4.43;3.20;;;1.60;79.30;;;1.65;70.28;98775.47;5075589;28;20616;-74
2023/04/03 03:47:36;;;;;;;3.30;3.00;;;1.60;79.20;;;1.66;70.53;98774.50;5076056;28;20463;-73
2023/04/03 03:50:06;;;;;;;5.83;3.97;;;1.50;79.70;;;1.75;70.03;98767.50;5073459;28;20539;-73
2023/04/03 03:52:33;;;;;;;5.77;3.90;;;1.60;79.70;;;1.77;70.19;98773.53;5071578;28;20470;-75
2023/04/03 03:55:01;;;;;;;4.93;3.10;;;1.60;79.80;;;1.86;70.18;98766.53;5067731;28;20460;-74
2023/04/03 03:57:28;;;;;;;4.97;3.30;;;1.70;80.20;;;1.85;70.24;98771.00;5071228;28;21308;-73
2023/04/03 03:59:56;;;;;;;3.73;3.43;;;1.80;79.60;;;1.95;69.98;98773.66;5068498;28;20454;-71
2023/04/03 04:02:26;;;;;;;7.30;3.40;;;1.90;79.10;;;2.02;69.85;98757.94;5055031;28;20783;-74
2023/04/03 04:04:54;;;;;;;4.67;3.33;;;1.90;79.60;;;1.97;70.46;98769.00;5067347;28;20459;-74
2023/04/03 04:07:23;;;;;;;3.90;3.20;;;1.90;79.50;;;2.00;70.27;98773.22;5063635;28;20512;-73
2023/04/03 04:09:50;;;;;;;5.40;3.90;;;1.80;79.90;;;1.81;70.88;98765.09;5064358;28;20465;-77
2023/04/03 04:12:17;;;;;;;4.77;4.20;;;1.80;80.10;;;1.84;70.76;98779.97;5068018;28;20452;-75
2023/04/03 04:14:46;;;;;;;4.20;3.80;;;1.80;80.90;;;1.82;71.27;98772.13;5066962;28;21057;-76
2023/04/03 04:17:14;;;;;;;7.90;4.20;;;1.90;80.60;;;1.86;70.79;98758.53;5059511;28;20789;-74
2023/04/03 04:19:41;;;;;;;6.50;4.27;;;1.90;80.60;;;1.93;71.03;98776.47;5063694;28;20453;-74
2023/04/03 04:22:08;;;;;;;6.10;4.43;;;1.90;80.70;;;1.82;70.93;98749.97;5071426;28;20457;-76
2023/04/03 04:24:37;;;;;;;4.40;3.73;;;1.80;81.10;;;1.77;71.83;98778.88;5093503;28;20944;-74
2023/04/03 04:27:04;;;;;;;5.30;4.40;;;1.80;81.20;;;1.79;71.58;98761.72;5059746;28;20550;-75
2023/04/03 04:29:35;;;;;;;4.57;4.17;;;1.80;81.60;;;1.84;71.80;98778.16;5065798;28;20476;-76
2023/04/03 04:32:02;;;;;;;5.63;4.03;;;1.90;81.80;;;1.80;71.90;98778.56;5084839;28;20444;-75
2023/04/03 04:34:29;;;;;;;6.07;4.30;;;1.90;81.70;;;1.80;72.12;98779.41;5070871;28;20471;-74
2023/04/03 04:36:57;;;;;;;10.00;4.70;;;1.80;81.70;;;1.69;72.23;98771.56;5067970;28;20781;-73
2023/04/03 04:39:24;;;;;;;4.77;4.33;;;1.80;81.70;;;1.54;72.50;98760.47;5070278;28;20533;-74
2023/04/03 04:41:53;;;;;;;5.90;4.43;;;1.70;82.00;;;1.45;72.69;98764.81;5067023;28;20467;-75
2023/04/03 04:44:20;;;;;;;11.07;4.30;;;1.70;82.70;;;1.57;72.83;98783.34;5070684;28;21331;-74
2023/04/03 04:46:48;;;;;;;9.20;5.40;;;1.60;83.10;;;1.48;72.73;98766.38;5065572;28;20462;-75
2023/04/03 04:49:15;;;;;;;6.20;4.80;;;1.60;83.20;;;1.48;73.01;98788.50;5057605;28;20456;-74
2023/04/03 04:51:42;;;;;;;8.00;4.97;;;1.60;83.50;;;1.42;73.54;98787.22;5064161;28;20847;-74
2023/04/03 04:54:09;;;;;;;7.83;4.80;;;1.50;84.50;;;1.31;73.66;98775.88;5064457;28;20467;-74
2023/04/03 04:56:37;;;;;;;6.50;5.30;;;1.50;84.80;;;1.30;74.29;98788.34;5062708;28;20464;-74
2023/04/03 04:59:05;;;;;;;7.30;4.73;;;1.40;84.50;;;1.38;73.96;98793.81;5070062;28;20448;-75
2023/04/03 05:01:32;;;;;;;5.93;4.67;;;1.40;85.70;;;1.34;74.21;98784.44;5072434;28;20542;-74
2023/04/03 05:04:00;;;;;;;9.10;5.47;;;1.40;86.00;;;1.34;74.22;98797.75;5067109;28;20462;-74
2023/04/03 05:06:27;;;;;;;5.97;4.43;;;1.40;85.70;;;1.42;74.06;98797.88;5074446;28;20490;-74
2023/04/03 05:08:54;;;;;;;6.70;4.70;;;1.40;85.70;;;1.40;74.28;98802.50;5074559;28;20448;-74
2023/04/03 05:11:22;;;;;;;6.73;5.17;;;1.50;85.50;;;1.49;74.33;98800.00;5057206;28;20539;-73
2023/04/03 05:13:49;;;;;;;8.00;5.57;;;1.60;85.50;;;1.54;73.58;98805.75;5067542;28;20440;-73
2023/04/03 05:16:17;;;;;;;5.37;4.37;;;1.60;85.00;;;1.54;73.91;98795.09;5064790;28;20465;-74
2023/04/03 05:18:45;;;;;;;6.03;4.90;;;1.60;85.00;;;1.59;73.94;98808.00;5066049;28;20447;-72
2023/04/03 05:21:12;;;;;;;6.67;4.97;;;1.60;85.40;;;1.75;73.35;98802.16;5063179;28;20485;-73
2023/04/03 05:23:39;;;;;;;6.07;5.57;;;1.70;84.90;;;1.66;73.18;98798.47;5057815;28;20964;-74
2023/04/03 05:26:06;;;;;;;5.90;5.30;;;1.70;84.40;;;1.79;73.01;98811.53;5063636;28;20501;-73
2023/04/03 05:28:36;;;;;;;5.87;4.60;;;1.80;83.80;;;1.44;72.87;98751.63;5063342;28;20459;-74
2023/04/03 05:31:04;;;;;;;5.70;5.07;;;1.90;82.90;;;1.76;73.07;98803.84;5069512;28;21081;-76
2023/04/03 05:33:36;;;;;;;5.17;4.67;;;1.90;82.90;;;1.94;72.54;98820.81;5073349;28;20459;-71
2023/04/03 05:36:05;;;;;;;6.33;4.60;;;2.00;83.10;;;1.91;72.15;98801.56;5082515;28;20439;-74
2023/04/03 05:38:32;;;;;;;4.60;4.20;;;2.00;82.20;;;1.97;72.51;98815.19;5076021;28;20458;-73
2023/04/03 05:41:00;;;;;;;7.30;5.00;;;2.00;82.00;;;2.05;71.80;98808.31;5062462;28;21023;-84
2023/04/03 05:43:27;;;;;;;7.40;4.67;;;2.10;81.90;;;2.01;71.85;98806.91;5066739;28;21105;-74
2023/04/03 05:45:54;;;;;;;4.87;3.90;;;2.20;81.80;;;1.98;71.38;98810.72;5059664;28;20510;-74
2023/04/03 05:48:22;;;;;;;5.43;4.50;;;2.10;81.20;;;2.17;71.12;98806.34;5066363;28;20464;-71
2023/04/03 05:50:50;;;;;;;4.97;4.20;;;2.30;80.70;;;2.18;70.62;98805.34;5054098;28;20495;-72
2023/04/03 05:53:23;;;;;;;4.53;4.10;;;2.40;80.20;;;2.24;70.75;98797.63;5075216;28;20453;-74
2023/04/03 05:55:50;;;;;;;4.47;4.00;;;2.50;80.20;;;2.37;69.90;98793.81;5058697;28;20851;-72
2023/04/03 05:58:18;;;;;;;6.60;3.60;;;2.50;79.50;;;2.65;69.24;98826.72;5063010;28;20456;-73
2023/04/03 06:00:46;;;;;;;8.33;4.13;;;2.70;79.10;;;2.73;68.85;98828.69;5052832;28;20480;-67
2023/04/03 06:03:13;;;;;;;6.20;4.20;;;2.70;78.80;;;2.79;68.62;98827.25;5075275;28;20453;-67
2023/04/03 06:05:41;;;;;;;3.63;3.33;;;2.80;78.50;;;2.83;68.35;98828.63;5061202;28;20456;-67
2023/04/03 06:08:12;;;;;;;9.37;4.30;;;2.90;78.10;;;2.96;68.17;98823.81;5058724;28;20463;-66
2023/04/03 06:10:40;;;;;;;5.43;3.37;;;3.00;77.90;;;3.00;67.43;98824.38;5061435;28;20834;-66
2023/04/03 06:13:07;;;;;;;8.57;3.53;;;3.10;77.10;;;3.15;67.20;98826.56;5065422;28;20471;-67
2023/04/03 06:15:34;;;;;;;5.00;4.10;;;3.20;77.10;;;3.10;67.06;98835.00;5054078;28;20441;-66
2023/04/03 06:18:02;;;;;;;4.60;3.90;;;3.30;76.90;;;3.24;66.91;98831.00;5065394;28;20471;-66
2023/04/03 06:20:29;;;;;;;6.00;3.67;;;3.30;76.50;;;3.19;66.36;98839.47;5065902;28;20624;-66
2023/04/03 06:22:56;;;;;;;3.43;3.13;;;3.30;76.20;;;3.28;66.67;98829.72;5058980;28;20503;-66
2023/04/03 06:25:25;;;;;;;4.30;3.57;;;3.40;76.40;;;3.48;66.24;98837.63;5059365;28;20452;-66
2023/04/03 06:27:52;;;;;;;6.27;3.47;;;3.50;76.30;;;3.41;66.09;98837.38;5063081;28;20950;-66
2023/04/03 06:30:19;;;;;;;4.17;3.53;;;3.60;75.70;;;3.44;66.01;98844.28;5053504;28;20526;-65
2023/04/03 06:32:46;;;;;;;3.97;3.67;;;3.50;75.70;;;3.56;65.76;98845.72;5058869;28;20551;-66
2023/04/03 06:35:14;;;;;;;4.67;3.63;;;3.60;75.50;;;3.44;65.80;98847.78;5050456;28;20457;-66
2023/04/03 06:37:41;;;;;;;4.60;3.10;;;3.60;75.50;;;3.36;65.02;98851.19;5055691;28;20546;-70
2023/04/03 06:40:20;;;;;;;6.73;3.37;;;3.60;75.00;;;3.25;65.70;98843.34;5063844;28;20515;-65
2023/04/03 06:42:49;;;;;;;3.60;3.30;;;3.50;75.00;;;3.23;65.14;98850.69;5053109;28;22787;-65
2023/04/03 06:45:16;;;;;;;3.80;3.50;;;3.50;74.90;;;3.19;65.57;98865.31;5059611;28;20450;-65
2023/04/03 06:47:44;;;;;;;6.80;3.43;;;3.40;74.70;;;3.18;65.38;98855.63;5063929;28;20555;-64
2023/04/03 06:50:13;;;;;;;5.27;3.37;;;3.40;74.70;;;3.30;65.43;98859.81;5063194;28;20467;-67
2023/04/03 06:52:41;;;;;;;11.63;3.70;;;3.50;74.80;;;3.55;64.19;98854.72;5058692;28;20451;-67
2023/04/03 06:55:10;;;;;;;5.40;3.60;;;3.60;74.50;;;3.49;64.61;98855.34;5057191;28;20471;-67
2023/04/03 06:57:37;;;;;;;3.83;3.53;;;3.60;74.10;;;3.66;63.82;98859.88;5061841;28;20475;-66
2023/04/03 07:00:09;;;;;;;4.70;3.90;;;3.70;74.40;;;3.47;64.30;98860.00;5057020;28;20456;-64
2023/04/03 07:02:36;;;;;;;5.00;4.00;;;3.70;73.80;;;3.82;63.38;98869.91;5057515;28;20511;-66
2023/04/03 07:05:03;;;;;;;6.77;4.47;;;3.80;73.80;;;4.09;63.00;98870.84;5069778;28;20459;-65
2023/04/03 07:07:31;;;;;;;4.70;3.87;;;4.00;73.60;;;4.07;62.25;98870.16;5060985;28;21245;-67
2023/04/03 07:09:58;;;;;;;4.07;3.17;;;4.20;73.10;;;4.16;61.46;98876.41;5047429;28;20473;-66
2023/04/03 07:12:26;;;;;;;7.83;4.57;;;4.20;72.60;;;4.19;61.91;98881.47;5073793;28;20457;-65
2023/04/03 07:14:53;;;;;;;3.83;3.53;;;4.20;72.80;;;4.39;61.39;98883.97;5061095;28;20456;-65
2023/04/03 07:17:22;;;;;;;6.90;4.13;;;4.40;72.30;;;4.10;61.71;98879.69;5063297;28;20538;-72
2023/04/03 07:19:49;;;;;;;3.63;3.20;;;4.30;71.60;;;4.18;61.38;98887.81;5055277;28;20445;-67
2023/04/03 07:22:18;;;;;;;5.60;4.00;;;4.30;71.70;;;4.11;61.39;98894.75;5048378;28;20480;-66
2023/04/03 07:24:46;;;;;;;8.30;3.87;;;4.30;71.40;;;4.37;60.44;98905.53;5056444;28;20457;-67
2023/04/03 07:27:14;;;;;;;3.43;3.13;;;4.40;71.10;;;4.20;61.47;98896.53;5049308;28;20476;-71
2023/04/03 07:29:41;;;;;;;4.40;4.00;;;4.40;71.20;;;4.29;59.99;98891.25;5050674;28;20535;-67
2023/04/03 07:32:08;;;;;;;4.70;3.10;;;4.40;70.50;;;4.48;60.03;98893.78;5058386;28;21031;-69
2023/04/03 07:34:38;;;;;;;8.20;3.50;;;4.50;70.70;;;4.41;60.58;98898.03;5049238;28;20461;-69
2023/04/03 07:37:06;;;;;;;7.30;3.60;;;4.50;70.40;;;4.30;59.14;98895.59;5058602;28;20486;-69
2023/04/03 07:39:34;;;;;;;5.40;3.77;;;4.50;69.60;;;4.36;59.43;98901.16;5061233;28;20935;-68
2023/04/03 07:42:01;;;;;;;5.13;3.90;;;4.60;69.30;;;4.28;59.27;98897.59;5065232;28;20506;-69
2023/04/03 07:44:29;;;;;;;4.70;3.10;;;4.50;69.40;;;4.34;59.19;98902.34;5066882;28;20460;-68
2023/04/03 07:46:56;;;;;;;5.07;3.83;;;4.50;69.20;;;4.22;59.45;98909.72;5056781;28;21022;-67
2023/04/03 07:49:24;;;;;;;6.13;3.90;;;4.60;69.00;;;4.42;59.26;98904.25;5059399;28;20457;-67
2023/04/03 07:51:54;;;;;;;5.60;3.97;;;4.60;68.80;;;4.56;58.15;98906.38;5060447;28;20480;-69
2023/04/03 07:54:21;;;;;;;5.23;3.77;;;4.80;68.60;;;4.61;58.14;98904.06;5057152;28;20469;-69
2023/04/03 07:56:49;;;;;;;6.43;3.33;;;4.90;67.80;;;4.57;57.37;98908.06;5059107;28;20459;-68
2023/04/03 07:59:16;;;;;;;5.77;3.43;;;4.90;66.90;;;4.74;57.88;98913.53;5071504;28;20454;-69
2023/04/03 08:01:43;;;;;;;4.50;3.73;;;4.80;67.60;;;4.94;57.80;98908.81;5060373;28;20452;-67
2023/04/03 08:04:11;;;;;;;4.40;3.50;;;5.10;67.80;;;5.12;56.78;98915.97;5068154;28;20504;-68
2023/04/03 08:06:38;;;;;;;4.77;3.40;;;5.20;66.80;;;5.01;57.55;98909.88;5060330;28;20464;-69
2023/04/03 08:09:06;;;;;;;3.50;3.20;;;5.20;66.80;;;5.30;56.27;98903.34;5062519;28;21017;-69
2023/04/03 08:11:34;;;;;;;4.43;3.90;;;5.30;66.80;;;5.13;56.61;98917.66;5064946;28;20476;-69
2023/04/03 08:14:02;;;;;;;4.40;3.73;;;5.40;66.30;;;5.10;56.81;98919.66;5054227;28;20524;-69
2023/04/03 08:16:29;;;;;;;3.90;3.50;;;5.30;66.10;;;5.24;56.71;98920.06;5071732;28;22333;-68
2023/04/03 08:18:57;;;;;;;3.57;3.27;;;5.40;65.70;;;5.33;55.80;98919.09;5063973;28;20480;-69
2023/04/03 08:21:25;;;;;;;5.83;3.00;;;5.50;65.70;;;5.31;55.55;98929.13;5058895;28;20458;-69
2023/04/03 08:23:56;;;;;;;3.93;3.53;;;5.50;64.30;;;5.31;54.40;98921.09;5061791;28;20516;-68
2023/04/03 08:26:26;;;;;;;4.60;3.60;;;5.50;63.60;;;5.24;54.93;98925.41;5060077;28;20456;-67
2023/04/03 08:28:53;;;;;;;4.40;3.60;;;5.50;63.60;;;5.60;54.81;98924.41;5066324;28;20461;-67
2023/04/03 08:31:21;;;;;;;4.60;3.60;;;5.60;64.60;;;5.77;54.46;98914.59;5068803;28;21027;-71
2023/04/03 08:33:49;;;;;;;4.37;3.67;;;5.80;63.70;;;5.42;53.58;98928.00;5062016;28;20198;-66
2023/04/03 08:36:23;;;;;;;5.23;3.70;;;5.70;61.30;;;5.63;53.73;98922.25;5057981;28;20574;-67
2023/04/03 08:38:51;;;;;;;7.77;3.90;;;5.70;61.60;;;5.22;53.39;98925.56;5059473;28;20453;-67
2023/04/03 08:41:32;;;;;;;3.63;3.00;;;5.50;61.30;;;5.47;53.37;98924.84;5057635;28;20575;-68
2023/04/03 08:44:16;;;;;;;8.73;3.80;;;5.50;61.80;;;5.61;52.63;98915.34;5059976;28;20908;-67
2023/04/03 08:47:01;;;;;;;3.17;2.87;;;5.60;61.60;;;5.91;52.74;98915.78;5057587;28;20444;-69
2023/04/03 08:49:34;;;;;;;3.47;3.13;;;5.80;61.20;;;5.68;51.16;98917.22;5060811;28;20800;-69
2023/04/03 08:52:06;;;;;;;4.50;2.97;;;5.80;59.00;;;5.58;49.52;98904.94;5059378;28;20873;-69
2023/04/03 08:54:37;;;;;;;3.37;2.33;;;5.70;56.70;;;5.70;49.37;98913.56;5051885;28;20546;-67
2023/04/03 08:57:07;;;;;;;4.20;2.33;;;5.80;56.70;;;5.61;47.07;98926.06;5068366;28;20479;-68
2023/04/03 08:59:38;;;;;;;2.97;2.53;;;5.80;54.00;;;5.54;46.92;98925.91;5067342;28;20543;-68
2023/04/03 09:02:27;;;;;;;4.83;2.20;;;5.70;53.10;;;5.71;47.42;98920.59;5054040;28;20445;-67
2023/04/03 09:04:55;;;;;;;4.28;2.70;;;5.80;53.50;;;5.33;48.63;98935.16;5058211;28;20956;-69
2023/04/03 09:07:33;;;;;;;4.27;2.70;;;5.70;54.00;;;5.48;48.98;98926.53;5059754;28;20644;-68
2023/04/03 09:10:02;;;;;;;2.87;2.30;;;5.70;54.40;;;5.41;48.72;98936.22;5052137;28;20475;-67
2023/04/03 09:12:38;;;;;;;4.40;3.00;;;5.60;54.30;;;5.08;51.21;98931.50;5055798;28;21332;-69
2023/04/03 09:15:17;;;;;;;3.90;2.93;;;5.40;55.20;;;5.41;50.83;98946.94;5060374;28;20515;-68
2023/04/03 09:17:59;;;;;;;3.63;2.53;;;5.40;55.60;;;5.68;49.25;98930.63;5052345;28;20457;-68
2023/04/03 09:20:42;;;;;;;2.73;2.53;;;5.50;55.00;;;5.53;49.08;98926.88;5059208;28;20541;-68
2023/04/03 09:23:25;;;;;;;2.80;2.53;;;5.70;54.70;;;5.67;48.69;98928.94;5072056;28;20459;-67
2023/04/03 09:25:59;;;;;;;3.93;2.70;;;5.80;54.50;;;5.27;50.27;98951.88;5052902;28;20468;-70
2023/04/03 09:28:28;;;;;;;3.00;2.23;;;5.60;54.70;;;5.38;48.29;98943.59;5058896;28;20446;-68
2023/04/03 09:30:56;;;;;;;2.70;2.07;;;5.60;53.80;;;5.44;48.35;98935.91;5057668;28;21301;-69
2023/04/03 09:33:25;;;;;;;3.33;2.50;;;5.70;53.60;;;5.52;47.97;98933.25;5053776;28;20477;-68
2023/04/03 09:35:52;;;;;;;4.70;2.20;;;5.70;52.70;;;5.74;47.67;98939.06;5056373;28;20933;-67
2023/04/03 09:38:22;;;;;;;4.90;2.83;;;5.80;53.10;;;5.94;46.84;98943.13;5062540;28;20468;-69
2023/04/03 09:40:52;;;;;;;2.83;2.63;;;5.90;52.60;;;5.71;45.54;98942.88;5047800;28;21009;-68
2023/04/03 09:43:33;;;;;;;2.10;1.90;;;6.00;51.40;;;5.48;46.63;98878.28;5064932;28;20460;-68
2023/04/03 09:46:26;;;;;;;5.03;2.17;;;6.00;51.60;;;5.58;45.85;98935.28;5047285;28;21003;-67
2023/04/03 09:48:58;;;;;;;2.30;1.90;;;5.90;50.50;;;5.59;46.54;98939.66;5076106;28;20451;-68
2023/04/03 09:51:28;;;;;;;6.07;2.57;;;5.80;50.80;;;5.45;47.04;98934.91;5064316;28;20472;-69
2023/04/03 09:53:56;;;;;;;3.70;2.57;;;5.60;51.10;;;5.10;46.87;98922.31;5062046;28;20449;-67
2023/04/03 09:56:26;;;;;;;2.73;2.50;;;5.50;50.70;;;5.63;46.78;98938.31;5057510;28;20918;-68
2023/04/03 09:59:16;;;;;;;2.53;2.20;;;5.70;51.60;;;5.83;45.38;98930.00;5076670;28;20475;-68
2023/04/03 10:02:01;;;;;;;3.27;2.00;;;6.00;50.10;;;6.23;44.04;98917.75;5047125;28;20627;-66
2023/04/03 10:04:39;;;;;;;3.43;2.20;;;6.30;49.40;;;6.57;42.03;98925.81;5058083;28;20464;-69
2023/04/03 10:07:34;;;;;;;3.43;2.27;;;6.50;48.00;;;6.43;43.28;98922.78;5059991;28;20462;-68
2023/04/03 10:10:03;;;;;;;3.90;2.60;;;6.70;48.20;;;6.02;43.86;98917.38;5061959;28;20456;-68
2023/04/03 10:12:31;;;;;;;2.73;1.80;;;6.40;48.30;;;5.91;44.65;98922.00;5068192;28;20533;-68
2023/04/03 10:15:02;;;;;;;2.57;2.20;;;6.20;48.30;;;5.91;45.17;98931.88;5069516;28;20461;-68
2023/04/03 10:17:48;;;;;;;3.53;2.63;;;6.10;48.80;;;6.27;43.97;98920.09;5058462;28;20453;-68
2023/04/03 10:20:32;;;;;;;4.30;2.40;;;6.30;48.60;;;6.26;42.54;98913.06;5066759;28;20461;-69
2023/04/03 10:23:16;;;;;;;3.90;2.30;;;6.40;47.40;;;6.55;42.03;98928.69;5071919;28;20474;-67
2023/04/03 10:25:57;;;;;;;4.27;2.30;;;6.50;47.40;;;6.75;41.20;98902.34;5062035;28;20950;-67
2023/04/03 10:28:32;;;;;;;2.77;2.53;;;6.80;46.80;;;6.84;41.61;98902.31;5058658;28;20814;-71
2023/04/03 10:31:11;;;;;;;2.20;1.90;;;6.90;46.60;;;6.71;42.09;98914.41;5058531;28;20800;-69
2023/04/03 10:33:54;;;;;;;3.77;2.70;;;6.90;46.30;;;6.45;43.15;98919.97;5060338;28;20447;-68
2023/04/03 10:36:35;;;;;;;2.83;2.20;;;6.70;46.80;;;6.77;42.51;98905.69;5055762;28;20484;-67
2023/04/03 10:39:14;;;;;;;2.53;2.20;;;6.70;47.30;;;6.27;41.06;98912.03;5048384;28;20479;-67
2023/04/03 10:41:57;;;;;;;2.50;1.60;;;6.60;45.70;;;6.38;41.22;98912.59;5062954;28;20456;-67
2023/04/03 10:44:37;;;;;;;4.20;2.03;;;6.50;45.20;;;6.90;40.10;98915.06;5050082;28;20460;-68